createdAt,value
2022-12-13T00:01:38.304Z,10.32
2022-12-13T00:04:26.684Z,10.60
2022-12-13T00:07:12.140Z,11.25
2022-12-13T00:09:57.596Z,9.88
2022-12-13T00:12:43.133Z,10.40
2022-12-13T00:15:28.618Z,10.57
2022-12-13T00:18:14.212Z,10.32
2022-12-13T00:21:08.229Z,11.05
2022-12-13T00:23:54.303Z,10.35
2022-12-13T00:26:39.484Z,10.05
2022-12-13T00:29:25.679Z,10.75
2022-12-13T00:32:11.277Z,9.93
2022-12-13T00:34:56.739Z,9.73
2022-12-13T00:37:42.351Z,10.63
2022-12-13T00:40:29.088Z,11.63
2022-12-13T00:43:14.444Z,10.57
2022-12-13T00:46:00.151Z,10.70
2022-12-13T00:48:50.367Z,10.75
2022-12-13T00:51:35.789Z,9.82
2022-12-13T00:54:21.418Z,10.25
2022-12-13T00:57:06.746Z,10.13
2022-12-13T00:59:52.396Z,9.73
2022-12-13T01:02:37.808Z,9.68
2022-12-13T01:05:47.250Z,9.98
2022-12-13T01:08:29.043Z,10.38
2022-12-13T01:11:15.587Z,10.23
2022-12-13T01:14:00.804Z,9.77
2022-12-13T01:16:46.465Z,10.20
2022-12-13T01:19:32.760Z,10.25
2022-12-13T01:22:18.417Z,10.35
2022-12-13T01:25:03.987Z,10.13
2022-12-13T01:27:49.280Z,9.63
2022-12-13T01:30:34.845Z,9.52
2022-12-13T01:33:20.205Z,10.25
2022-12-13T01:36:08.631Z,10.63
2022-12-13T01:38:53.928Z,9.93
2022-12-13T01:41:49.835Z,9.75
2022-12-13T01:45:00.040Z,10.18
2022-12-13T01:47:59.405Z,9.38
2022-12-13T01:50:50.376Z,10.10
2022-12-13T01:53:37.964Z,9.52
2022-12-13T01:56:31.335Z,8.93
2022-12-13T01:59:17.999Z,9.27
2022-12-13T02:02:07.309Z,9.80
2022-12-13T02:05:04.553Z,8.85
2022-12-13T02:07:51.105Z,9.20
2022-12-13T02:10:36.580Z,10.35
2022-12-13T02:13:22.119Z,11.10
2022-12-13T02:16:22.966Z,11.43
2022-12-13T02:19:27.546Z,10.43
2022-12-13T02:22:48.524Z,10.98
2022-12-13T02:25:51.548Z,10.13
2022-12-13T02:32:01.470Z,10.05
2022-12-13T02:35:10.304Z,10.00
2022-12-13T02:38:35.619Z,10.30
2022-12-13T02:41:38.149Z,9.75
2022-12-13T02:44:28.894Z,9.60
2022-12-13T02:47:22.771Z,10.20
2022-12-13T02:50:10.262Z,10.05
2022-12-13T02:52:56.487Z,10.68
2022-12-13T02:55:41.709Z,10.60
2022-12-13T02:58:32.872Z,10.48
2022-12-13T03:01:42.073Z,10.98
2022-12-13T03:05:20.236Z,11.75
2022-12-13T03:08:32.491Z,11.63
2022-12-13T03:11:19.996Z,12.05
2022-12-13T03:14:09.192Z,11.25
2022-12-13T03:16:55.544Z,11.65
2022-12-13T03:19:41.180Z,10.95
2022-12-13T03:22:26.303Z,11.38
2022-12-13T03:25:11.945Z,10.43
2022-12-13T03:27:57.375Z,11.05
2022-12-13T03:30:47.300Z,12.07
2022-12-13T03:33:33.523Z,11.68
2022-12-13T03:36:19.417Z,11.90
2022-12-13T03:39:05.028Z,10.27
2022-12-13T03:41:51.332Z,11.57
2022-12-13T03:44:36.636Z,11.75
2022-12-13T03:47:22.163Z,11.82
2022-12-13T03:50:26.066Z,11.52
2022-12-13T03:53:22.430Z,11.77
2022-12-13T03:56:17.023Z,12.07
2022-12-13T03:59:02.630Z,11.00
2022-12-13T04:01:48.391Z,11.27
2022-12-13T04:04:33.800Z,11.90
2022-12-13T04:07:21.821Z,11.80
2022-12-13T04:10:26.507Z,11.15
2022-12-13T04:13:30.863Z,12.00
2022-12-13T04:16:16.513Z,12.73
2022-12-13T04:19:01.982Z,12.50
2022-12-13T04:21:47.370Z,12.55
2022-12-13T04:24:32.913Z,12.75
2022-12-13T04:27:18.850Z,12.50
2022-12-13T04:30:08.047Z,12.55
2022-12-13T04:32:53.504Z,12.73
2022-12-13T04:35:39.040Z,11.25
2022-12-13T04:38:24.832Z,11.70
2022-12-13T04:41:15.819Z,11.55
2022-12-13T04:44:01.162Z,12.20
2022-12-13T04:46:46.688Z,11.43
2022-12-13T04:49:32.821Z,11.90
2022-12-13T04:52:22.520Z,11.60
2022-12-13T04:55:09.582Z,12.02
2022-12-13T04:57:54.688Z,12.25
2022-12-13T05:00:40.876Z,12.50
2022-12-13T05:03:29.643Z,11.18
2022-12-13T05:06:26.604Z,10.77
2022-12-13T05:09:12.444Z,11.18
2022-12-13T05:12:01.823Z,11.13
2022-12-13T05:14:47.428Z,10.43
2022-12-13T05:17:33.183Z,11.15
2022-12-13T05:20:18.838Z,10.40
2022-12-13T05:23:04.557Z,10.70
2022-12-13T05:25:51.218Z,10.80
2022-12-13T05:28:36.595Z,11.20
2022-12-13T05:31:22.578Z,10.85
2022-12-13T05:34:09.286Z,11.15
2022-12-13T05:36:54.722Z,10.60
2022-12-13T05:39:40.278Z,10.82
2022-12-13T05:42:25.738Z,12.15
2022-12-13T05:45:12.913Z,11.63
2022-12-13T05:47:58.169Z,12.35
2022-12-13T05:50:43.964Z,11.15
2022-12-13T05:53:30.883Z,11.07
2022-12-13T05:56:22.528Z,11.25
2022-12-13T05:59:08.512Z,11.77
2022-12-13T06:01:54.271Z,11.57
2022-12-13T06:04:39.903Z,12.40
2022-12-13T06:07:25.384Z,12.00
2022-12-13T06:10:11.235Z,11.13
2022-12-13T06:13:01.145Z,10.55
2022-12-13T06:15:47.013Z,11.23
2022-12-13T06:18:34.571Z,11.27
2022-12-13T06:21:19.946Z,11.02
2022-12-13T06:24:05.974Z,10.98
2022-12-13T06:26:51.857Z,11.52
2022-12-13T06:29:37.000Z,12.10
2022-12-13T06:32:22.599Z,12.23
2022-12-13T06:35:28.107Z,11.45
2022-12-13T06:38:21.855Z,11.20
2022-12-13T06:41:17.162Z,11.00
2022-12-13T06:44:02.297Z,11.55
2022-12-13T06:46:47.886Z,11.82
2022-12-13T06:49:33.493Z,12.80
2022-12-13T06:52:19.206Z,12.00
2022-12-13T06:55:05.250Z,11.77
2022-12-13T06:57:50.433Z,11.13
2022-12-13T07:00:42.596Z,12.75
2022-12-13T07:03:36.092Z,11.45
2022-12-13T07:06:24.916Z,12.35
2022-12-13T07:09:10.127Z,11.57
2022-12-13T07:11:55.821Z,11.27
2022-12-13T07:14:41.514Z,10.50
2022-12-13T07:17:33.379Z,10.88
2022-12-13T07:20:20.206Z,11.88
2022-12-13T07:23:06.036Z,11.70
2022-12-13T07:25:55.132Z,11.57
2022-12-13T07:28:40.325Z,11.27
2022-12-13T07:31:26.915Z,11.52
2022-12-13T07:34:15.563Z,11.60
2022-12-13T07:37:01.659Z,11.43
2022-12-13T07:39:47.349Z,11.15
2022-12-13T07:42:33.062Z,11.30
2022-12-13T07:45:19.030Z,11.35
2022-12-13T07:48:05.903Z,11.88
2022-12-13T07:50:54.721Z,11.35
2022-12-13T07:53:41.219Z,11.10
2022-12-13T07:56:26.485Z,10.85
2022-12-13T07:59:12.089Z,11.48
2022-12-13T08:01:57.790Z,11.70
2022-12-13T08:04:54.799Z,11.45
2022-12-13T08:07:40.765Z,11.32
2022-12-13T08:10:28.383Z,10.75
2022-12-13T08:13:13.960Z,10.65
2022-12-13T08:16:26.561Z,11.05
2022-12-13T08:19:13.956Z,10.77
2022-12-13T08:22:02.136Z,12.07
2022-12-13T08:24:47.485Z,10.98
2022-12-13T08:27:33.596Z,10.70
2022-12-13T08:30:23.060Z,11.05
2022-12-13T08:33:09.111Z,11.07
2022-12-13T08:35:54.544Z,11.05
2022-12-13T08:38:39.963Z,11.38
2022-12-13T08:41:25.475Z,11.52
2022-12-13T08:44:11.038Z,11.77
2022-12-13T08:46:56.618Z,10.73
2022-12-13T08:49:42.341Z,11.35
2022-12-13T08:52:27.981Z,12.48
2022-12-13T08:55:15.120Z,13.70
2022-12-13T08:58:04.809Z,13.27
2022-12-13T09:00:50.370Z,12.18
2022-12-13T09:03:36.839Z,12.38
2022-12-13T09:06:22.327Z,12.25
2022-12-13T09:09:07.852Z,12.02
2022-12-13T09:11:53.204Z,12.82
2022-12-13T09:14:46.541Z,13.05
2022-12-13T09:17:36.488Z,12.48
2022-12-13T09:20:29.694Z,12.45
2022-12-13T09:26:11.786Z,12.45
2022-12-13T09:29:00.253Z,12.80
2022-12-13T09:31:56.703Z,13.77
2022-12-13T09:34:42.302Z,14.70
2022-12-13T09:37:32.099Z,14.43
2022-12-13T09:40:25.366Z,14.10
2022-12-13T09:43:22.824Z,14.75
2022-12-13T09:46:23.148Z,13.95
2022-12-13T09:49:16.052Z,13.80
2022-12-13T09:52:21.619Z,13.13
2022-12-13T09:55:29.063Z,13.15
2022-12-13T09:58:23.369Z,13.52
2022-12-13T10:01:12.331Z,13.52
2022-12-13T10:04:00.253Z,13.70
2022-12-13T10:06:45.504Z,12.95
2022-12-13T10:09:32.650Z,13.30
2022-12-13T10:12:18.263Z,14.77
2022-12-13T10:15:04.584Z,14.05
2022-12-13T10:17:55.565Z,13.57
2022-12-13T10:20:42.069Z,12.93
2022-12-13T10:23:47.066Z,13.15
2022-12-13T10:26:38.998Z,14.38
2022-12-13T10:29:24.955Z,14.15
2022-12-13T10:32:14.178Z,14.65
2022-12-13T10:34:59.665Z,15.48
2022-12-13T10:37:45.005Z,15.82
2022-12-13T10:40:32.527Z,16.10
2022-12-13T10:43:23.274Z,15.18
2022-12-13T10:46:24.994Z,14.70
2022-12-13T10:49:38.864Z,14.07
2022-12-13T10:52:31.849Z,15.02
2022-12-13T10:55:33.758Z,14.82
2022-12-13T10:58:19.823Z,15.00
2022-12-13T11:01:11.833Z,15.23
2022-12-13T11:04:02.052Z,16.05
2022-12-13T11:06:48.736Z,13.93
2022-12-13T11:09:38.483Z,15.23
2022-12-13T11:12:26.923Z,15.48
2022-12-13T11:15:23.059Z,14.93
2022-12-13T11:18:21.940Z,15.30
2022-12-13T11:21:07.720Z,15.68
2022-12-13T11:23:56.890Z,16.33
2022-12-13T11:26:54.134Z,16.25
2022-12-13T11:30:02.992Z,17.03
2022-12-13T11:32:59.302Z,17.60
2022-12-13T11:36:03.356Z,17.05
2022-12-13T11:39:03.067Z,17.83
2022-12-13T11:41:58.704Z,18.13
2022-12-13T11:45:23.520Z,17.40
2022-12-13T11:48:09.288Z,17.63
2022-12-13T11:50:56.636Z,16.98
2022-12-13T11:53:58.684Z,17.75
2022-12-13T11:56:45.557Z,17.33
2022-12-13T11:59:39.902Z,17.95
2022-12-13T12:02:31.693Z,17.85
2022-12-13T12:05:31.075Z,16.90
2022-12-13T12:08:41.412Z,17.73
2022-12-13T12:11:35.900Z,17.92
2022-12-13T12:14:46.642Z,17.60
2022-12-13T12:17:37.728Z,17.80
2022-12-13T12:20:44.747Z,17.67
2022-12-13T12:23:49.744Z,17.60
2022-12-13T12:26:48.636Z,18.20
2022-12-13T12:30:23.630Z,18.27
2022-12-13T12:33:09.305Z,17.48
2022-12-13T12:36:17.669Z,17.10
2022-12-13T12:39:44.935Z,17.85
2022-12-13T12:42:40.135Z,17.27
2022-12-13T12:46:06.564Z,16.63
2022-12-13T12:49:04.017Z,16.45
2022-12-13T12:52:08.758Z,16.02
2022-12-13T12:55:03.406Z,16.42
2022-12-13T12:58:01.527Z,16.65
2022-12-13T13:01:11.572Z,15.70
2022-12-13T13:04:01.976Z,15.45
2022-12-13T13:07:01.887Z,15.95
2022-12-13T13:09:48.414Z,15.38
2022-12-13T13:12:43.106Z,16.10
2022-12-13T13:15:32.013Z,16.05
2022-12-13T13:18:52.353Z,16.50
2022-12-13T13:21:44.331Z,16.73
2022-12-13T13:24:31.900Z,15.38
2022-12-13T13:27:31.041Z,15.70
2022-12-13T13:30:25.331Z,15.80
2022-12-13T13:33:45.320Z,15.82
2022-12-13T13:36:41.187Z,16.80
2022-12-13T13:39:27.255Z,16.52
2022-12-13T13:42:19.886Z,15.75
2022-12-13T13:45:23.652Z,18.40
2022-12-13T13:48:48.759Z,18.77
2022-12-13T13:52:26.238Z,18.90
2022-12-13T13:55:36.330Z,18.20
2022-12-13T13:58:48.387Z,18.23
2022-12-13T14:02:04.921Z,18.83
2022-12-13T14:05:10.826Z,19.25
2022-12-13T14:08:21.609Z,16.80
2022-12-13T14:11:31.280Z,18.25
2022-12-13T14:14:54.204Z,17.58
2022-12-13T14:18:21.312Z,16.73
2022-12-13T14:21:15.138Z,17.00
2022-12-13T14:24:03.823Z,17.73
2022-12-13T14:27:17.370Z,19.60
2022-12-13T14:30:09.556Z,18.40
2022-12-13T14:33:20.841Z,18.65
2022-12-13T14:36:13.332Z,19.05
2022-12-13T14:39:24.647Z,19.23
2022-12-13T14:42:33.818Z,19.45
2022-12-13T14:45:25.270Z,19.10
2022-12-13T14:48:15.290Z,18.73
2022-12-13T14:51:00.823Z,18.77
2022-12-13T14:53:46.433Z,18.83
2022-12-13T14:56:31.939Z,18.67
2022-12-13T14:59:17.387Z,18.60
2022-12-13T15:02:05.312Z,18.00
2022-12-13T15:04:57.322Z,18.58
2022-12-13T15:07:42.690Z,19.73
2022-12-13T15:10:38.995Z,19.40
2022-12-13T15:13:44.698Z,18.45
2022-12-13T15:16:30.040Z,18.92
2022-12-13T15:19:29.619Z,19.52
2022-12-13T15:22:21.112Z,19.98
2022-12-13T15:25:16.297Z,21.27
2022-12-13T15:28:05.163Z,21.88
2022-12-13T15:30:51.059Z,21.73
2022-12-13T15:33:44.087Z,20.77
2022-12-13T15:36:38.098Z,21.50
2022-12-13T15:39:24.756Z,21.25
2022-12-13T15:42:23.549Z,20.73
2022-12-13T15:45:36.660Z,20.58
2022-12-13T15:48:28.505Z,20.52
2022-12-13T15:51:28.529Z,21.00
2022-12-13T15:54:21.937Z,20.65
2022-12-13T15:57:21.610Z,21.08
2022-12-13T16:00:30.120Z,21.10
2022-12-13T16:03:21.275Z,19.52
2022-12-13T16:06:07.010Z,19.63
2022-12-13T16:08:56.829Z,19.52
2022-12-13T16:12:01.183Z,20.38
2022-12-13T16:14:49.611Z,19.40
2022-12-13T16:17:35.323Z,18.88
2022-12-13T16:20:23.170Z,19.02
2022-12-13T16:23:09.333Z,18.17
2022-12-13T16:25:54.797Z,18.08
2022-12-13T16:28:41.131Z,18.45
2022-12-13T16:31:35.495Z,18.27
2022-12-13T16:34:26.312Z,17.88
2022-12-13T16:37:26.436Z,18.88
2022-12-13T16:40:33.792Z,19.25
2022-12-13T16:43:23.567Z,17.95
2022-12-13T16:47:14.516Z,18.48
2022-12-13T16:49:27.081Z,18.45
2022-12-13T16:52:12.503Z,18.65
2022-12-13T16:55:00.510Z,17.33
2022-12-13T16:57:56.126Z,18.20
2022-12-13T17:00:43.852Z,19.15
2022-12-13T17:10:25.347Z,16.60
2022-12-13T17:13:11.075Z,17.10
2022-12-13T17:15:59.440Z,17.35
2022-12-13T17:18:46.305Z,16.58
2022-12-13T17:21:31.558Z,16.95
2022-12-13T17:24:18.024Z,16.80
2022-12-13T17:27:03.659Z,18.15
2022-12-13T17:29:49.140Z,17.80
2022-12-13T17:32:36.120Z,17.23
2022-12-13T17:35:21.686Z,16.52
2022-12-13T17:38:07.313Z,17.48
2022-12-13T17:40:54.627Z,17.52
2022-12-13T17:43:41.972Z,17.85
2022-12-13T17:46:28.024Z,17.95
2022-12-13T17:49:13.833Z,18.02
2022-12-13T17:51:59.298Z,17.92
2022-12-13T17:54:45.042Z,16.92
2022-12-13T17:57:33.172Z,16.70
2022-12-13T18:00:19.194Z,16.73
2022-12-13T18:03:04.513Z,16.85
2022-12-13T18:05:58.513Z,17.90
2022-12-13T18:08:46.106Z,17.58
2022-12-13T18:11:39.307Z,17.58
2022-12-13T18:14:25.018Z,17.73
2022-12-13T18:17:10.315Z,19.05
2022-12-13T18:19:55.460Z,17.00
2022-12-13T18:22:43.130Z,17.08
2022-12-13T18:25:34.526Z,17.27
2022-12-13T18:28:20.212Z,16.08
2022-12-13T18:31:10.054Z,16.92
2022-12-13T18:33:58.054Z,17.48
2022-12-13T18:36:43.428Z,17.42
2022-12-13T18:39:29.128Z,16.58
2022-12-13T18:42:15.003Z,16.83
2022-12-13T18:45:00.600Z,18.75
2022-12-13T18:47:46.017Z,18.25
2022-12-13T18:50:32.896Z,17.42
2022-12-13T18:53:18.273Z,18.23
2022-12-13T18:56:12.925Z,17.08
2022-12-13T18:59:03.297Z,17.20
2022-12-13T19:01:48.655Z,17.63
2022-12-13T19:04:35.786Z,17.48
2022-12-13T19:07:21.494Z,16.70
2022-12-13T19:10:07.271Z,16.63
2022-12-13T19:12:53.267Z,17.90
2022-12-13T19:15:40.333Z,17.65
2022-12-13T19:18:26.046Z,16.73
2022-12-13T19:21:15.757Z,16.17
2022-12-13T19:24:01.582Z,16.42
2022-12-13T19:26:47.262Z,16.15
2022-12-13T19:29:32.938Z,16.80
2022-12-13T19:32:18.825Z,15.88
2022-12-13T19:35:04.781Z,15.52
2022-12-13T19:37:49.977Z,15.10
2022-12-13T19:40:39.790Z,15.45
2022-12-13T19:43:25.781Z,15.07
2022-12-13T19:46:11.788Z,15.00
2022-12-13T19:48:57.075Z,14.52
2022-12-13T19:51:42.695Z,15.45
2022-12-13T19:54:28.222Z,15.68
2022-12-13T19:57:13.768Z,16.42
2022-12-13T19:59:59.235Z,16.45
2022-12-13T20:02:44.693Z,16.65
2022-12-13T20:05:30.233Z,16.50
2022-12-13T20:08:15.540Z,17.65
2022-12-13T20:11:13.457Z,17.13
2022-12-13T20:13:58.982Z,17.02
2022-12-13T20:16:44.223Z,17.70
2022-12-13T20:19:29.820Z,18.00
2022-12-13T20:22:15.604Z,16.98
2022-12-13T20:25:00.889Z,16.65
2022-12-13T20:27:46.161Z,16.50
2022-12-13T20:30:32.886Z,16.40
2022-12-13T20:33:18.168Z,17.58
2022-12-13T20:36:27.246Z,16.13
2022-12-13T20:39:14.710Z,16.00
2022-12-13T20:42:00.779Z,15.52
2022-12-13T20:44:46.287Z,16.73
2022-12-13T20:47:35.105Z,17.10
2022-12-13T20:50:23.165Z,15.35
2022-12-13T20:53:08.642Z,16.48
2022-12-13T20:56:00.807Z,16.58
2022-12-13T20:58:46.709Z,15.20
2022-12-13T21:01:35.107Z,15.48
2022-12-13T21:04:21.051Z,15.65
2022-12-13T21:07:06.853Z,16.10
2022-12-13T21:09:52.320Z,16.00
2022-12-13T21:12:37.719Z,15.80
2022-12-13T21:15:23.346Z,15.43
2022-12-13T21:18:08.685Z,15.07
2022-12-13T21:20:57.262Z,15.45
2022-12-13T21:23:42.630Z,15.82
2022-12-13T21:26:34.696Z,15.02
2022-12-13T21:29:21.114Z,15.55
2022-12-13T21:32:06.695Z,14.27
2022-12-13T21:34:52.180Z,14.20
2022-12-13T21:37:37.561Z,13.95
2022-12-13T21:40:24.134Z,13.07
2022-12-13T21:43:09.392Z,14.23
2022-12-13T21:45:54.797Z,12.70
2022-12-13T21:48:42.111Z,13.77
2022-12-13T21:51:30.615Z,14.63
2022-12-13T21:54:17.015Z,13.73
2022-12-13T21:57:20.863Z,13.40
2022-12-13T22:00:07.407Z,13.45
2022-12-13T22:02:58.601Z,13.70
2022-12-13T22:05:44.639Z,13.68
2022-12-13T22:08:31.059Z,13.25
2022-12-13T22:11:21.375Z,12.85
2022-12-13T22:14:06.994Z,13.73
2022-12-13T22:16:53.297Z,13.43
2022-12-13T22:19:39.052Z,13.77
2022-12-13T22:22:25.117Z,13.00
2022-12-13T22:25:11.009Z,13.00
2022-12-13T22:27:56.333Z,13.05
2022-12-13T22:30:42.160Z,12.48
2022-12-13T22:33:27.424Z,12.43
2022-12-13T22:36:14.003Z,12.48
2022-12-13T22:38:59.366Z,12.50
2022-12-13T22:41:45.618Z,11.48
2022-12-13T22:44:31.118Z,12.80
2022-12-13T22:47:16.699Z,12.50
2022-12-13T22:50:02.349Z,12.65
2022-12-13T22:52:47.569Z,12.48
2022-12-13T22:55:33.308Z,13.10
2022-12-13T22:58:18.647Z,11.73
2022-12-13T23:01:09.325Z,12.13
2022-12-13T23:03:54.821Z,10.93
2022-12-13T23:06:40.879Z,11.82
2022-12-13T23:09:26.669Z,11.70
2022-12-13T23:12:30.760Z,11.52
2022-12-13T23:15:16.146Z,11.48
2022-12-13T23:18:01.623Z,11.70
2022-12-13T23:20:48.570Z,11.52
2022-12-13T23:23:34.081Z,11.75
2022-12-13T23:26:22.227Z,11.77
2022-12-13T23:29:08.732Z,12.30
2022-12-13T23:31:54.055Z,11.98
2022-12-13T23:34:39.832Z,12.63
2022-12-13T23:37:25.445Z,11.35
2022-12-13T23:40:11.638Z,11.93
2022-12-13T23:42:57.021Z,12.23
2022-12-13T23:45:42.539Z,11.75
2022-12-13T23:48:28.854Z,11.45
2022-12-13T23:51:16.078Z,11.07
2022-12-13T23:54:01.532Z,10.07
2022-12-13T23:56:47.551Z,10.65
2022-12-13T23:59:32.570Z,9.95
